sensor_id;sensor_type;location;lat;lon;timestamp;temperature;humidity
11152;DHT22;5630;49.342;10.802;2023-06-10T00:01:39;16.20;99.90
11152;DHT22;5630;49.342;10.802;2023-06-10T00:04:05;16.20;99.90
11152;DHT22;5630;49.342;10.802;2023-06-10T00:06:30;16.10;99.90
11152;DHT22;5630;49.342;10.802;2023-06-10T00:09:02;16.10;99.90
11152;DHT22;5630;49.342;10.802;2023-06-10T00:11:30;16.10;99.90
11152;DHT22;5630;49.342;10.802;2023-06-10T00:13:56;16.10;99.90
11152;DHT22;5630;49.342;10.802;2023-06-10T00:16:21;16.00;99.90
11152;DHT22;5630;49.342;10.802;2023-06-10T00:18:48;16.00;99.90
11152;DHT22;5630;49.342;10.802;2023-06-10T00:21:14;15.90;99.90
11152;DHT22;5630;49.342;10.802;2023-06-10T00:23:39;15.90;99.90
11152;DHT22;5630;49.342;10.802;2023-06-10T00:26:06;15.90;99.90
11152;DHT22;5630;49.342;10.802;2023-06-10T00:28:32;15.80;99.90
11152;DHT22;5630;49.342;10.802;2023-06-10T00:30:58;15.90;99.90
11152;DHT22;5630;49.342;10.802;2023-06-10T00:33:23;15.80;99.90
11152;DHT22;5630;49.342;10.802;2023-06-10T00:35:49;15.80;99.90
11152;DHT22;5630;49.342;10.802;2023-06-10T00:38:14;15.80;99.90
11152;DHT22;5630;49.342;10.802;2023-06-10T00:40:40;15.70;99.90
11152;DHT22;5630;49.342;10.802;2023-06-10T00:43:06;15.70;99.90
11152;DHT22;5630;49.342;10.802;2023-06-10T00:45:32;15.70;99.90
11152;DHT22;5630;49.342;10.802;2023-06-10T00:48:01;15.60;99.90
11152;DHT22;5630;49.342;10.802;2023-06-10T00:50:28;15.60;99.90
11152;DHT22;5630;49.342;10.802;2023-06-10T00:52:57;15.60;99.90
11152;DHT22;5630;49.342;10.802;2023-06-10T00:55:23;15.60;99.90
11152;DHT22;5630;49.342;10.802;2023-06-10T00:57:49;15.50;99.90
11152;DHT22;5630;49.342;10.802;2023-06-10T01:00:16;15.50;99.90
11152;DHT22;5630;49.342;10.802;2023-06-10T01:02:42;15.50;99.90
11152;DHT22;5630;49.342;10.802;2023-06-10T01:05:08;15.50;99.90
11152;DHT22;5630;49.342;10.802;2023-06-10T01:07:40;15.50;99.90
11152;DHT22;5630;49.342;10.802;2023-06-10T01:10:12;15.50;99.90
11152;DHT22;5630;49.342;10.802;2023-06-10T01:12:49;15.50;99.90
11152;DHT22;5630;49.342;10.802;2023-06-10T01:15:18;15.40;99.90
11152;DHT22;5630;49.342;10.802;2023-06-10T01:20:21;15.40;99.90
11152;DHT22;5630;49.342;10.802;2023-06-10T01:22:46;15.40;99.90
11152;DHT22;5630;49.342;10.802;2023-06-10T01:25:13;15.40;99.90
11152;DHT22;5630;49.342;10.802;2023-06-10T01:27:40;15.40;99.90
11152;DHT22;5630;49.342;10.802;2023-06-10T01:30:12;15.30;99.90
11152;DHT22;5630;49.342;10.802;2023-06-10T01:32:44;15.30;99.90
11152;DHT22;5630;49.342;10.802;2023-06-10T01:35:11;15.20;99.90
11152;DHT22;5630;49.342;10.802;2023-06-10T01:37:39;15.20;99.90
11152;DHT22;5630;49.342;10.802;2023-06-10T01:40:05;15.10;99.90
11152;DHT22;5630;49.342;10.802;2023-06-10T01:42:32;15.10;99.90
11152;DHT22;5630;49.342;10.802;2023-06-10T01:44:58;15.10;99.90
11152;DHT22;5630;49.342;10.802;2023-06-10T01:47:23;15.10;99.90
11152;DHT22;5630;49.342;10.802;2023-06-10T01:49:49;15.10;99.90
11152;DHT22;5630;49.342;10.802;2023-06-10T01:52:15;15.10;99.90
11152;DHT22;5630;49.342;10.802;2023-06-10T01:54:41;15.10;99.90
11152;DHT22;5630;49.342;10.802;2023-06-10T01:57:06;15.00;99.90
11152;DHT22;5630;49.342;10.802;2023-06-10T01:59:32;15.00;99.90
11152;DHT22;5630;49.342;10.802;2023-06-10T02:01:57;15.00;99.90
11152;DHT22;5630;49.342;10.802;2023-06-10T02:04:23;15.00;99.90
11152;DHT22;5630;49.342;10.802;2023-06-10T02:06:48;15.00;99.90
11152;DHT22;5630;49.342;10.802;2023-06-10T02:09:14;15.00;99.90
11152;DHT22;5630;49.342;10.802;2023-06-10T02:11:40;15.00;99.90
11152;DHT22;5630;49.342;10.802;2023-06-10T02:14:05;14.90;99.90
11152;DHT22;5630;49.342;10.802;2023-06-10T02:16:31;14.90;99.90
11152;DHT22;5630;49.342;10.802;2023-06-10T02:18:56;14.90;99.90
11152;DHT22;5630;49.342;10.802;2023-06-10T02:21:23;14.90;99.90
11152;DHT22;5630;49.342;10.802;2023-06-10T02:23:48;14.90;99.90
11152;DHT22;5630;49.342;10.802;2023-06-10T02:26:14;14.90;99.90
11152;DHT22;5630;49.342;10.802;2023-06-10T02:28:43;14.90;99.90
11152;DHT22;5630;49.342;10.802;2023-06-10T02:31:08;14.90;99.90
11152;DHT22;5630;49.342;10.802;2023-06-10T02:33:34;14.90;99.90
11152;DHT22;5630;49.342;10.802;2023-06-10T02:36:00;14.80;99.90
11152;DHT22;5630;49.342;10.802;2023-06-10T02:38:25;14.90;99.90
11152;DHT22;5630;49.342;10.802;2023-06-10T02:40:51;14.80;99.90
11152;DHT22;5630;49.342;10.802;2023-06-10T02:43:17;14.80;99.90
11152;DHT22;5630;49.342;10.802;2023-06-10T02:45:42;14.80;99.90
11152;DHT22;5630;49.342;10.802;2023-06-10T02:48:08;14.80;99.90
11152;DHT22;5630;49.342;10.802;2023-06-10T02:50:33;14.80;99.90
11152;DHT22;5630;49.342;10.802;2023-06-10T02:52:59;14.80;99.90
11152;DHT22;5630;49.342;10.802;2023-06-10T02:55:25;14.80;99.90
11152;DHT22;5630;49.342;10.802;2023-06-10T02:57:52;14.80;99.90
11152;DHT22;5630;49.342;10.802;2023-06-10T03:00:19;14.80;99.90
11152;DHT22;5630;49.342;10.802;2023-06-10T03:02:45;14.80;99.90
11152;DHT22;5630;49.342;10.802;2023-06-10T03:05:11;14.80;99.90
11152;DHT22;5630;49.342;10.802;2023-06-10T03:07:38;14.70;99.90
11152;DHT22;5630;49.342;10.802;2023-06-10T03:10:05;14.70;99.90
11152;DHT22;5630;49.342;10.802;2023-06-10T03:12:31;14.70;99.90
11152;DHT22;5630;49.342;10.802;2023-06-10T03:14:56;14.70;99.90
11152;DHT22;5630;49.342;10.802;2023-06-10T03:19:48;14.60;99.90
11152;DHT22;5630;49.342;10.802;2023-06-10T03:22:14;14.60;99.90
11152;DHT22;5630;49.342;10.802;2023-06-10T03:24:40;14.60;99.90
11152;DHT22;5630;49.342;10.802;2023-06-10T03:27:07;14.60;99.90
11152;DHT22;5630;49.342;10.802;2023-06-10T03:29:33;14.60;99.90
11152;DHT22;5630;49.342;10.802;2023-06-10T03:31:58;14.60;99.90
11152;DHT22;5630;49.342;10.802;2023-06-10T03:34:24;14.50;99.90
11152;DHT22;5630;49.342;10.802;2023-06-10T03:36:50;14.50;99.90
11152;DHT22;5630;49.342;10.802;2023-06-10T03:39:16;14.50;99.90
11152;DHT22;5630;49.342;10.802;2023-06-10T03:41:41;14.50;99.90
11152;DHT22;5630;49.342;10.802;2023-06-10T03:44:07;14.50;99.90
11152;DHT22;5630;49.342;10.802;2023-06-10T03:46:32;14.50;99.90
11152;DHT22;5630;49.342;10.802;2023-06-10T03:48:58;14.50;99.90
11152;DHT22;5630;49.342;10.802;2023-06-10T03:51:26;14.50;99.90
11152;DHT22;5630;49.342;10.802;2023-06-10T03:53:51;14.40;99.90
11152;DHT22;5630;49.342;10.802;2023-06-10T03:56:17;14.50;99.90
11152;DHT22;5630;49.342;10.802;2023-06-10T03:58:43;14.40;99.90
11152;DHT22;5630;49.342;10.802;2023-06-10T04:01:09;14.40;99.90
11152;DHT22;5630;49.342;10.802;2023-06-10T04:03:36;14.50;99.90
11152;DHT22;5630;49.342;10.802;2023-06-10T04:06:01;14.50;99.90
11152;DHT22;5630;49.342;10.802;2023-06-10T04:08:28;14.50;99.90
11152;DHT22;5630;49.342;10.802;2023-06-10T04:10:53;14.50;99.90
11152;DHT22;5630;49.342;10.802;2023-06-10T04:13:19;14.50;99.90
11152;DHT22;5630;49.342;10.802;2023-06-10T04:15:45;14.50;99.90
11152;DHT22;5630;49.342;10.802;2023-06-10T04:18:10;14.50;99.90
11152;DHT22;5630;49.342;10.802;2023-06-10T04:20:36;14.60;99.90
11152;DHT22;5630;49.342;10.802;2023-06-10T04:23:01;14.50;99.90
11152;DHT22;5630;49.342;10.802;2023-06-10T04:25:27;14.50;99.90
11152;DHT22;5630;49.342;10.802;2023-06-10T04:27:54;14.40;99.90
11152;DHT22;5630;49.342;10.802;2023-06-10T04:30:20;14.40;99.90
11152;DHT22;5630;49.342;10.802;2023-06-10T04:32:45;14.40;99.90
11152;DHT22;5630;49.342;10.802;2023-06-10T04:35:12;14.50;99.90
11152;DHT22;5630;49.342;10.802;2023-06-10T04:37:39;14.50;99.90
11152;DHT22;5630;49.342;10.802;2023-06-10T04:40:06;14.60;99.90
11152;DHT22;5630;49.342;10.802;2023-06-10T04:42:32;14.60;99.90
11152;DHT22;5630;49.342;10.802;2023-06-10T04:44:57;14.90;99.90
11152;DHT22;5630;49.342;10.802;2023-06-10T04:47:23;15.20;99.90
11152;DHT22;5630;49.342;10.802;2023-06-10T04:49:48;15.50;99.90
11152;DHT22;5630;49.342;10.802;2023-06-10T04:52:14;15.90;99.90
11152;DHT22;5630;49.342;10.802;2023-06-10T04:54:40;16.20;99.90
11152;DHT22;5630;49.342;10.802;2023-06-10T04:57:06;16.40;99.90
11152;DHT22;5630;49.342;10.802;2023-06-10T04:59:33;16.60;99.90
11152;DHT22;5630;49.342;10.802;2023-06-10T05:01:58;16.80;99.90
11152;DHT22;5630;49.342;10.802;2023-06-10T05:04:24;16.90;99.90
11152;DHT22;5630;49.342;10.802;2023-06-10T05:06:50;17.00;99.90
11152;DHT22;5630;49.342;10.802;2023-06-10T05:09:15;17.10;99.90
11152;DHT22;5630;49.342;10.802;2023-06-10T05:11:41;17.10;99.90
11152;DHT22;5630;49.342;10.802;2023-06-10T05:14:06;17.00;99.90
11152;DHT22;5630;49.342;10.802;2023-06-10T05:16:32;16.90;99.90
11152;DHT22;5630;49.342;10.802;2023-06-10T05:18:58;16.60;99.90
11152;DHT22;5630;49.342;10.802;2023-06-10T05:21:23;16.50;99.90
11152;DHT22;5630;49.342;10.802;2023-06-10T05:23:49;16.40;99.90
11152;DHT22;5630;49.342;10.802;2023-06-10T05:26:15;16.30;99.90
11152;DHT22;5630;49.342;10.802;2023-06-10T05:28:40;16.20;99.90
11152;DHT22;5630;49.342;10.802;2023-06-10T05:31:06;16.10;99.90
11152;DHT22;5630;49.342;10.802;2023-06-10T05:33:32;16.00;99.90
11152;DHT22;5630;49.342;10.802;2023-06-10T05:35:58;16.00;99.90
11152;DHT22;5630;49.342;10.802;2023-06-10T05:38:23;15.90;99.90
11152;DHT22;5630;49.342;10.802;2023-06-10T05:40:49;16.00;99.90
11152;DHT22;5630;49.342;10.802;2023-06-10T05:43:14;15.90;99.90
11152;DHT22;5630;49.342;10.802;2023-06-10T05:45:42;16.00;99.90
11152;DHT22;5630;49.342;10.802;2023-06-10T05:48:07;16.00;99.90
11152;DHT22;5630;49.342;10.802;2023-06-10T05:50:34;16.10;99.90
11152;DHT22;5630;49.342;10.802;2023-06-10T05:53:04;16.20;99.90
11152;DHT22;5630;49.342;10.802;2023-06-10T05:55:32;16.20;99.90
11152;DHT22;5630;49.342;10.802;2023-06-10T05:58:00;16.30;99.90
11152;DHT22;5630;49.342;10.802;2023-06-10T06:00:26;16.40;99.90
11152;DHT22;5630;49.342;10.802;2023-06-10T06:02:52;16.40;99.90
11152;DHT22;5630;49.342;10.802;2023-06-10T06:05:19;16.50;99.90
11152;DHT22;5630;49.342;10.802;2023-06-10T06:07:45;16.70;99.90
11152;DHT22;5630;49.342;10.802;2023-06-10T06:10:10;16.70;99.90
11152;DHT22;5630;49.342;10.802;2023-06-10T06:12:36;16.90;99.90
11152;DHT22;5630;49.342;10.802;2023-06-10T06:15:02;17.10;99.90
11152;DHT22;5630;49.342;10.802;2023-06-10T06:17:27;17.20;99.90
11152;DHT22;5630;49.342;10.802;2023-06-10T06:19:53;17.40;99.90
11152;DHT22;5630;49.342;10.802;2023-06-10T06:22:18;17.50;99.90
11152;DHT22;5630;49.342;10.802;2023-06-10T06:24:46;17.60;99.90
11152;DHT22;5630;49.342;10.802;2023-06-10T06:27:12;17.70;99.90
11152;DHT22;5630;49.342;10.802;2023-06-10T06:29:38;17.80;99.90
11152;DHT22;5630;49.342;10.802;2023-06-10T06:32:03;18.00;99.90
11152;DHT22;5630;49.342;10.802;2023-06-10T06:34:29;18.10;99.90
11152;DHT22;5630;49.342;10.802;2023-06-10T06:36:55;18.20;99.90
11152;DHT22;5630;49.342;10.802;2023-06-10T06:39:20;18.40;99.90
11152;DHT22;5630;49.342;10.802;2023-06-10T06:41:46;18.50;99.90
11152;DHT22;5630;49.342;10.802;2023-06-10T06:44:11;18.70;99.90
11152;DHT22;5630;49.342;10.802;2023-06-10T06:46:37;18.80;99.90
11152;DHT22;5630;49.342;10.802;2023-06-10T06:49:02;19.10;99.90
11152;DHT22;5630;49.342;10.802;2023-06-10T06:51:28;19.30;99.90
11152;DHT22;5630;49.342;10.802;2023-06-10T06:53:53;19.40;99.90
11152;DHT22;5630;49.342;10.802;2023-06-10T06:56:22;19.60;99.90
11152;DHT22;5630;49.342;10.802;2023-06-10T06:58:48;19.70;99.90
11152;DHT22;5630;49.342;10.802;2023-06-10T07:01:13;19.90;99.90
11152;DHT22;5630;49.342;10.802;2023-06-10T07:03:39;20.10;99.90
11152;DHT22;5630;49.342;10.802;2023-06-10T07:06:04;20.20;99.90
11152;DHT22;5630;49.342;10.802;2023-06-10T07:08:30;20.40;99.90
11152;DHT22;5630;49.342;10.802;2023-06-10T07:10:56;20.50;99.90
11152;DHT22;5630;49.342;10.802;2023-06-10T07:13:21;20.70;99.90
11152;DHT22;5630;49.342;10.802;2023-06-10T07:15:47;20.70;99.90
11152;DHT22;5630;49.342;10.802;2023-06-10T07:18:14;21.00;99.90
11152;DHT22;5630;49.342;10.802;2023-06-10T07:20:40;21.10;99.90
11152;DHT22;5630;49.342;10.802;2023-06-10T07:23:06;21.30;99.90
11152;DHT22;5630;49.342;10.802;2023-06-10T07:25:32;21.50;99.90
11152;DHT22;5630;49.342;10.802;2023-06-10T07:27:58;21.60;99.90
11152;DHT22;5630;49.342;10.802;2023-06-10T07:30:23;21.80;99.90
11152;DHT22;5630;49.342;10.802;2023-06-10T07:32:49;22.10;99.90
11152;DHT22;5630;49.342;10.802;2023-06-10T07:35:14;22.10;99.90
11152;DHT22;5630;49.342;10.802;2023-06-10T07:37:40;22.20;99.90
11152;DHT22;5630;49.342;10.802;2023-06-10T07:40:06;22.40;99.90
11152;DHT22;5630;49.342;10.802;2023-06-10T07:42:34;22.60;99.90
11152;DHT22;5630;49.342;10.802;2023-06-10T07:44:59;22.80;99.90
11152;DHT22;5630;49.342;10.802;2023-06-10T07:47:25;23.00;99.90
11152;DHT22;5630;49.342;10.802;2023-06-10T07:49:51;23.20;99.90
11152;DHT22;5630;49.342;10.802;2023-06-10T07:52:17;23.30;99.90
11152;DHT22;5630;49.342;10.802;2023-06-10T07:54:42;23.30;99.90
11152;DHT22;5630;49.342;10.802;2023-06-10T07:57:08;23.40;99.90
11152;DHT22;5630;49.342;10.802;2023-06-10T07:59:34;23.50;99.90
11152;DHT22;5630;49.342;10.802;2023-06-10T08:01:59;23.60;99.90
11152;DHT22;5630;49.342;10.802;2023-06-10T08:04:25;23.70;99.90
11152;DHT22;5630;49.342;10.802;2023-06-10T08:06:50;23.80;99.90
11152;DHT22;5630;49.342;10.802;2023-06-10T08:09:16;23.90;99.90
11152;DHT22;5630;49.342;10.802;2023-06-10T08:11:43;23.90;99.90
11152;DHT22;5630;49.342;10.802;2023-06-10T08:14:09;24.10;99.90
11152;DHT22;5630;49.342;10.802;2023-06-10T08:16:35;24.20;99.90
11152;DHT22;5630;49.342;10.802;2023-06-10T08:19:00;24.40;99.90
11152;DHT22;5630;49.342;10.802;2023-06-10T08:21:26;24.20;99.90
11152;DHT22;5630;49.342;10.802;2023-06-10T08:23:54;24.50;99.90
11152;DHT22;5630;49.342;10.802;2023-06-10T08:26:20;24.70;99.90
11152;DHT22;5630;49.342;10.802;2023-06-10T08:28:45;24.90;99.90
11152;DHT22;5630;49.342;10.802;2023-06-10T08:31:11;24.90;99.90
11152;DHT22;5630;49.342;10.802;2023-06-10T08:33:36;25.00;99.90
11152;DHT22;5630;49.342;10.802;2023-06-10T08:36:02;24.90;99.90
11152;DHT22;5630;49.342;10.802;2023-06-10T08:38:28;24.90;99.90
11152;DHT22;5630;49.342;10.802;2023-06-10T08:40:56;24.90;99.90
11152;DHT22;5630;49.342;10.802;2023-06-10T08:43:44;25.00;99.90
11152;DHT22;5630;49.342;10.802;2023-06-10T08:46:11;25.20;99.90
11152;DHT22;5630;49.342;10.802;2023-06-10T08:48:42;25.40;99.90
11152;DHT22;5630;49.342;10.802;2023-06-10T08:51:10;25.60;99.90
11152;DHT22;5630;49.342;10.802;2023-06-10T08:53:38;25.70;99.90
11152;DHT22;5630;49.342;10.802;2023-06-10T08:56:09;25.80;99.90
11152;DHT22;5630;49.342;10.802;2023-06-10T08:58:35;25.90;99.90
11152;DHT22;5630;49.342;10.802;2023-06-10T09:01:07;26.10;99.90
11152;DHT22;5630;49.342;10.802;2023-06-10T09:03:36;26.20;99.90
11152;DHT22;5630;49.342;10.802;2023-06-10T09:06:04;26.20;99.90
11152;DHT22;5630;49.342;10.802;2023-06-10T09:08:31;25.90;99.90
11152;DHT22;5630;49.342;10.802;2023-06-10T09:10:57;25.80;99.90
11152;DHT22;5630;49.342;10.802;2023-06-10T09:13:23;25.80;99.90
11152;DHT22;5630;49.342;10.802;2023-06-10T09:15:48;25.90;99.90
11152;DHT22;5630;49.342;10.802;2023-06-10T09:18:16;25.90;99.90
11152;DHT22;5630;49.342;10.802;2023-06-10T09:20:43;25.90;99.90
11152;DHT22;5630;49.342;10.802;2023-06-10T09:23:09;25.90;99.90
11152;DHT22;5630;49.342;10.802;2023-06-10T09:25:37;25.80;99.90
11152;DHT22;5630;49.342;10.802;2023-06-10T09:28:03;25.50;99.90
11152;DHT22;5630;49.342;10.802;2023-06-10T09:30:30;25.60;99.90
11152;DHT22;5630;49.342;10.802;2023-06-10T09:32:58;25.80;99.90
11152;DHT22;5630;49.342;10.802;2023-06-10T09:35:25;26.00;99.90
11152;DHT22;5630;49.342;10.802;2023-06-10T09:37:55;26.00;99.90
11152;DHT22;5630;49.342;10.802;2023-06-10T09:40:21;25.70;99.90
11152;DHT22;5630;49.342;10.802;2023-06-10T09:42:47;25.90;99.90
11152;DHT22;5630;49.342;10.802;2023-06-10T09:45:20;26.10;99.90
11152;DHT22;5630;49.342;10.802;2023-06-10T09:47:47;26.20;99.90
11152;DHT22;5630;49.342;10.802;2023-06-10T09:50:13;26.40;99.90
11152;DHT22;5630;49.342;10.802;2023-06-10T09:52:38;26.40;99.90
11152;DHT22;5630;49.342;10.802;2023-06-10T09:55:07;26.20;99.90
11152;DHT22;5630;49.342;10.802;2023-06-10T09:57:33;26.30;99.90
11152;DHT22;5630;49.342;10.802;2023-06-10T09:59:59;26.00;99.90
11152;DHT22;5630;49.342;10.802;2023-06-10T10:02:25;25.90;99.90
11152;DHT22;5630;49.342;10.802;2023-06-10T10:04:50;26.00;99.90
11152;DHT22;5630;49.342;10.802;2023-06-10T10:07:16;26.00;99.90
11152;DHT22;5630;49.342;10.802;2023-06-10T10:09:42;26.40;99.90
11152;DHT22;5630;49.342;10.802;2023-06-10T10:14:34;26.80;99.90
11152;DHT22;5630;49.342;10.802;2023-06-10T10:17:01;26.50;99.90
11152;DHT22;5630;49.342;10.802;2023-06-10T10:19:32;26.00;99.90
11152;DHT22;5630;49.342;10.802;2023-06-10T10:22:07;26.00;99.90
11152;DHT22;5630;49.342;10.802;2023-06-10T10:24:38;26.00;99.90
11152;DHT22;5630;49.342;10.802;2023-06-10T10:27:11;25.70;99.90
11152;DHT22;5630;49.342;10.802;2023-06-10T10:29:40;25.90;99.90
11152;DHT22;5630;49.342;10.802;2023-06-10T10:32:07;26.00;99.90
11152;DHT22;5630;49.342;10.802;2023-06-10T10:34:40;25.80;99.90
11152;DHT22;5630;49.342;10.802;2023-06-10T10:37:08;25.60;99.90
11152;DHT22;5630;49.342;10.802;2023-06-10T10:39:35;25.40;99.90
11152;DHT22;5630;49.342;10.802;2023-06-10T10:42:02;25.20;99.90
11152;DHT22;5630;49.342;10.802;2023-06-10T10:44:29;25.20;99.90
11152;DHT22;5630;49.342;10.802;2023-06-10T10:46:55;25.00;99.90
11152;DHT22;5630;49.342;10.802;2023-06-10T10:49:22;25.20;99.90
11152;DHT22;5630;49.342;10.802;2023-06-10T10:51:57;25.70;99.90
11152;DHT22;5630;49.342;10.802;2023-06-10T10:54:30;26.20;99.90
11152;DHT22;5630;49.342;10.802;2023-06-10T11:02:10;25.70;99.90
11152;DHT22;5630;49.342;10.802;2023-06-10T11:04:48;25.50;99.90
11152;DHT22;5630;49.342;10.802;2023-06-10T11:07:14;25.50;99.90
11152;DHT22;5630;49.342;10.802;2023-06-10T11:10:10;26.00;99.90
11152;DHT22;5630;49.342;10.802;2023-06-10T11:15:11;26.50;99.90
11152;DHT22;5630;49.342;10.802;2023-06-10T11:17:37;26.90;99.90
11152;DHT22;5630;49.342;10.802;2023-06-10T11:20:03;27.20;99.90
11152;DHT22;5630;49.342;10.802;2023-06-10T11:22:28;27.20;99.90
11152;DHT22;5630;49.342;10.802;2023-06-10T11:24:54;27.40;99.90
11152;DHT22;5630;49.342;10.802;2023-06-10T11:27:23;27.50;99.90
11152;DHT22;5630;49.342;10.802;2023-06-10T11:29:56;27.30;99.90
11152;DHT22;5630;49.342;10.802;2023-06-10T11:32:23;26.90;99.90
11152;DHT22;5630;49.342;10.802;2023-06-10T11:34:53;26.60;99.90
11152;DHT22;5630;49.342;10.802;2023-06-10T11:37:18;26.30;99.90
11152;DHT22;5630;49.342;10.802;2023-06-10T11:39:44;26.20;99.90
11152;DHT22;5630;49.342;10.802;2023-06-10T11:42:11;26.00;99.90
11152;DHT22;5630;49.342;10.802;2023-06-10T11:44:36;25.80;99.90
11152;DHT22;5630;49.342;10.802;2023-06-10T11:47:03;25.60;99.90
11152;DHT22;5630;49.342;10.802;2023-06-10T11:49:29;25.50;99.90
11152;DHT22;5630;49.342;10.802;2023-06-10T11:51:54;25.40;99.90
11152;DHT22;5630;49.342;10.802;2023-06-10T11:54:20;25.50;99.90
11152;DHT22;5630;49.342;10.802;2023-06-10T11:56:47;25.20;99.90
11152;DHT22;5630;49.342;10.802;2023-06-10T11:59:14;25.30;99.90
11152;DHT22;5630;49.342;10.802;2023-06-10T12:01:44;25.50;99.90
11152;DHT22;5630;49.342;10.802;2023-06-10T12:04:14;26.20;99.90
11152;DHT22;5630;49.342;10.802;2023-06-10T12:06:48;26.90;99.90
11152;DHT22;5630;49.342;10.802;2023-06-10T12:09:28;26.80;99.90
11152;DHT22;5630;49.342;10.802;2023-06-10T12:12:04;26.70;99.90
11152;DHT22;5630;49.342;10.802;2023-06-10T12:17:15;27.50;99.90
11152;DHT22;5630;49.342;10.802;2023-06-10T12:19:41;28.10;99.90
11152;DHT22;5630;49.342;10.802;2023-06-10T12:22:06;28.20;99.90
11152;DHT22;5630;49.342;10.802;2023-06-10T12:24:32;28.00;99.90
11152;DHT22;5630;49.342;10.802;2023-06-10T12:26:58;27.90;99.90
11152;DHT22;5630;49.342;10.802;2023-06-10T12:29:24;28.30;99.90
11152;DHT22;5630;49.342;10.802;2023-06-10T12:32:01;28.30;99.90
11152;DHT22;5630;49.342;10.802;2023-06-10T12:36:56;28.20;99.90
11152;DHT22;5630;49.342;10.802;2023-06-10T12:39:22;28.20;99.90
11152;DHT22;5630;49.342;10.802;2023-06-10T12:41:51;28.20;99.90
11152;DHT22;5630;49.342;10.802;2023-06-10T12:44:17;28.00;99.90
11152;DHT22;5630;49.342;10.802;2023-06-10T12:46:42;27.90;99.90
11152;DHT22;5630;49.342;10.802;2023-06-10T12:49:18;28.00;99.90
11152;DHT22;5630;49.342;10.802;2023-06-10T12:51:43;28.20;99.90
11152;DHT22;5630;49.342;10.802;2023-06-10T12:54:09;28.40;99.90
11152;DHT22;5630;49.342;10.802;2023-06-10T12:56:35;28.30;99.90
11152;DHT22;5630;49.342;10.802;2023-06-10T12:59:01;28.30;99.90
11152;DHT22;5630;49.342;10.802;2023-06-10T13:01:28;28.50;99.90
11152;DHT22;5630;49.342;10.802;2023-06-10T13:03:53;28.60;99.90
11152;DHT22;5630;49.342;10.802;2023-06-10T13:06:19;28.70;99.90
11152;DHT22;5630;49.342;10.802;2023-06-10T13:08:45;28.80;99.90
11152;DHT22;5630;49.342;10.802;2023-06-10T13:11:12;28.80;99.90
11152;DHT22;5630;49.342;10.802;2023-06-10T13:13:38;28.50;99.90
11152;DHT22;5630;49.342;10.802;2023-06-10T13:16:03;28.40;99.90
11152;DHT22;5630;49.342;10.802;2023-06-10T13:18:29;27.90;99.90
11152;DHT22;5630;49.342;10.802;2023-06-10T13:20:55;27.80;99.90
11152;DHT22;5630;49.342;10.802;2023-06-10T13:23:21;27.70;99.90
11152;DHT22;5630;49.342;10.802;2023-06-10T13:25:47;27.60;99.90
11152;DHT22;5630;49.342;10.802;2023-06-10T13:28:13;27.60;99.90
11152;DHT22;5630;49.342;10.802;2023-06-10T13:30:38;27.40;99.90
11152;DHT22;5630;49.342;10.802;2023-06-10T13:33:04;27.30;99.90
11152;DHT22;5630;49.342;10.802;2023-06-10T13:35:29;27.10;99.90
11152;DHT22;5630;49.342;10.802;2023-06-10T13:37:55;27.10;99.90
11152;DHT22;5630;49.342;10.802;2023-06-10T13:40:21;27.10;99.90
11152;DHT22;5630;49.342;10.802;2023-06-10T13:42:47;26.90;99.90
11152;DHT22;5630;49.342;10.802;2023-06-10T13:45:16;26.80;99.90
11152;DHT22;5630;49.342;10.802;2023-06-10T13:47:42;26.70;99.90
11152;DHT22;5630;49.342;10.802;2023-06-10T13:50:08;26.50;99.90
11152;DHT22;5630;49.342;10.802;2023-06-10T13:52:34;26.40;99.90
11152;DHT22;5630;49.342;10.802;2023-06-10T13:54:59;26.20;99.90
11152;DHT22;5630;49.342;10.802;2023-06-10T13:57:25;26.20;99.90
11152;DHT22;5630;49.342;10.802;2023-06-10T13:59:50;26.20;99.90
11152;DHT22;5630;49.342;10.802;2023-06-10T14:02:16;26.20;99.90
11152;DHT22;5630;49.342;10.802;2023-06-10T14:04:42;26.30;99.90
11152;DHT22;5630;49.342;10.802;2023-06-10T14:07:07;26.20;99.90
11152;DHT22;5630;49.342;10.802;2023-06-10T14:09:33;26.10;99.90
11152;DHT22;5630;49.342;10.802;2023-06-10T14:11:58;26.20;99.90
11152;DHT22;5630;49.342;10.802;2023-06-10T14:14:24;26.20;99.90
11152;DHT22;5630;49.342;10.802;2023-06-10T14:16:49;26.10;99.90
11152;DHT22;5630;49.342;10.802;2023-06-10T14:19:15;26.20;99.90
11152;DHT22;5630;49.342;10.802;2023-06-10T14:21:40;26.40;99.90
11152;DHT22;5630;49.342;10.802;2023-06-10T14:24:06;26.60;99.90
11152;DHT22;5630;49.342;10.802;2023-06-10T14:26:32;27.00;99.90
11152;DHT22;5630;49.342;10.802;2023-06-10T14:28:58;27.30;99.90
11152;DHT22;5630;49.342;10.802;2023-06-10T14:31:23;27.50;99.90
11152;DHT22;5630;49.342;10.802;2023-06-10T14:33:49;27.60;99.90
11152;DHT22;5630;49.342;10.802;2023-06-10T14:36:14;27.60;99.90
11152;DHT22;5630;49.342;10.802;2023-06-10T14:38:40;27.70;99.90
11152;DHT22;5630;49.342;10.802;2023-06-10T14:41:06;27.70;99.90
11152;DHT22;5630;49.342;10.802;2023-06-10T14:43:31;27.60;99.90
11152;DHT22;5630;49.342;10.802;2023-06-10T14:45:57;27.40;99.90
11152;DHT22;5630;49.342;10.802;2023-06-10T14:48:22;27.20;99.90
11152;DHT22;5630;49.342;10.802;2023-06-10T14:50:48;27.10;99.90
11152;DHT22;5630;49.342;10.802;2023-06-10T14:53:19;26.90;99.90
11152;DHT22;5630;49.342;10.802;2023-06-10T14:55:44;26.80;99.90
11152;DHT22;5630;49.342;10.802;2023-06-10T14:58:10;26.90;99.90
11152;DHT22;5630;49.342;10.802;2023-06-10T15:00:35;26.90;99.90
11152;DHT22;5630;49.342;10.802;2023-06-10T15:03:01;26.80;99.90
11152;DHT22;5630;49.342;10.802;2023-06-10T15:05:26;26.70;99.90
11152;DHT22;5630;49.342;10.802;2023-06-10T15:07:52;26.60;99.90
11152;DHT22;5630;49.342;10.802;2023-06-10T15:10:18;26.50;99.90
11152;DHT22;5630;49.342;10.802;2023-06-10T15:12:43;26.30;99.90
11152;DHT22;5630;49.342;10.802;2023-06-10T15:15:09;26.20;99.90
11152;DHT22;5630;49.342;10.802;2023-06-10T15:17:35;26.10;99.90
11152;DHT22;5630;49.342;10.802;2023-06-10T15:20:01;25.90;99.90
11152;DHT22;5630;49.342;10.802;2023-06-10T15:22:26;25.90;99.90
11152;DHT22;5630;49.342;10.802;2023-06-10T15:24:52;25.80;99.90
11152;DHT22;5630;49.342;10.802;2023-06-10T15:27:18;25.80;99.90
11152;DHT22;5630;49.342;10.802;2023-06-10T15:29:43;25.90;99.90
11152;DHT22;5630;49.342;10.802;2023-06-10T15:32:09;25.80;99.90
11152;DHT22;5630;49.342;10.802;2023-06-10T15:34:34;25.80;99.90
11152;DHT22;5630;49.342;10.802;2023-06-10T15:37:01;25.80;99.90
11152;DHT22;5630;49.342;10.802;2023-06-10T15:39:26;25.80;99.90
11152;DHT22;5630;49.342;10.802;2023-06-10T15:41:52;25.80;99.90
11152;DHT22;5630;49.342;10.802;2023-06-10T15:44:18;25.60;99.90
11152;DHT22;5630;49.342;10.802;2023-06-10T15:46:43;25.50;99.90